Terminal Aerodrome Forecast
Issued by NWS

Home | Current Version | Previous Version | Text Only | Print | Product List | Glossary On
Versions: 1 2 3 4 5 6 7 8 9 10 11 12 13 14 15 16 17 18
000
FTUS41 KILN 101742
TAFLUK
TAF
KLUK 101742Z 1018/1118 25006KT P6SM BKN028
     FM102100 24006KT P6SM SCT028 BKN100
     FM110000 VRB03KT P6SM BKN080
     FM111500 17010KT P6SM OVC050=

USA.gov is the U.S. government's official web portal to all federal, state and local government web resources and services.